createdAt,value
2019-01-15T00:01:50.488Z,7.53
2019-01-15T00:04:21.304Z,6.97
2019-01-15T00:06:51.447Z,9.47
2019-01-15T00:09:21.556Z,2.80
2019-01-15T00:11:51.827Z,8.47
2019-01-15T00:14:22.737Z,5.87
2019-01-15T00:16:53.267Z,4.77
2019-01-15T00:19:23.804Z,8.20
2019-01-15T00:21:54.053Z,5.70
2019-01-15T00:24:24.600Z,11.63
2019-01-15T00:26:55.212Z,11.03
2019-01-15T00:29:25.396Z,5.00
2019-01-15T00:31:55.517Z,7.03
2019-01-15T00:34:25.765Z,9.33
2019-01-15T00:36:56.082Z,6.63
2019-01-15T00:39:26.684Z,7.50
2019-01-15T00:41:56.904Z,6.73
2019-01-15T00:44:27.144Z,4.60
2019-01-15T00:46:57.264Z,6.17
2019-01-15T00:49:27.747Z,5.57
2019-01-15T00:51:58.019Z,6.57
2019-01-15T00:54:28.613Z,8.30
2019-01-15T00:57:00.495Z,8.43
2019-01-15T00:59:30.865Z,4.40
2019-01-15T01:02:01.361Z,11.60
2019-01-15T01:04:31.598Z,7.03
2019-01-15T01:07:02.021Z,5.27
2019-01-15T01:09:32.570Z,2.70
2019-01-15T01:12:02.892Z,3.23
2019-01-15T01:14:33.048Z,2.40
2019-01-15T01:17:03.376Z,5.13
2019-01-15T01:19:33.933Z,11.87
2019-01-15T01:22:04.174Z,8.10
2019-01-15T01:24:34.306Z,10.93
2019-01-15T01:27:04.900Z,3.40
2019-01-15T01:29:35.245Z,8.63
2019-01-15T01:32:05.564Z,1.77
2019-01-15T01:34:36.354Z,5.50
2019-01-15T01:37:07.443Z,7.50
2019-01-15T01:39:37.936Z,1.70
2019-01-15T01:42:08.397Z,7.73
2019-01-15T01:44:39.148Z,8.83
2019-01-15T01:47:09.257Z,5.67
2019-01-15T01:49:39.822Z,5.17
2019-01-15T01:52:09.987Z,11.33
2019-01-15T01:54:40.144Z,5.17
2019-01-15T01:57:19.457Z,4.50
2019-01-15T01:59:49.880Z,9.10
2019-01-15T02:02:20.030Z,7.60
2019-01-15T02:04:50.581Z,7.23
2019-01-15T02:07:20.984Z,3.43
2019-01-15T02:09:51.101Z,5.77
2019-01-15T02:12:21.382Z,5.17
2019-01-15T02:14:51.933Z,9.80
2019-01-15T02:17:22.298Z,7.30
2019-01-15T02:19:52.464Z,8.37
2019-01-15T02:22:22.518Z,3.67
2019-01-15T02:24:52.856Z,4.80
2019-01-15T02:27:23.856Z,7.90
2019-01-15T02:29:54.720Z,4.17
2019-01-15T02:32:25.061Z,3.20
2019-01-15T02:34:55.380Z,7.77
2019-01-15T02:37:25.548Z,3.83
2019-01-15T02:39:56.260Z,5.70
2019-01-15T02:42:26.668Z,5.73
2019-01-15T02:44:56.932Z,9.60
2019-01-15T02:47:27.190Z,5.47
2019-01-15T02:49:57.559Z,7.77
2019-01-15T02:52:28.055Z,6.10
2019-01-15T02:54:58.384Z,5.57
2019-01-15T02:57:28.864Z,7.70
2019-01-15T02:59:59.032Z,8.67
2019-01-15T03:02:29.698Z,4.37
2019-01-15T03:05:00.476Z,5.77
2019-01-15T03:07:30.558Z,11.03
2019-01-15T03:10:00.656Z,3.60
2019-01-15T03:12:31.812Z,4.87
2019-01-15T03:15:02.008Z,5.30
2019-01-15T03:17:32.049Z,14.10
2019-01-15T03:20:02.925Z,2.27
2019-01-15T03:22:32.989Z,6.33
2019-01-15T03:25:03.328Z,3.23
2019-01-15T03:27:35.178Z,9.83
2019-01-15T03:30:06.835Z,11.47
2019-01-15T03:32:37.039Z,8.43
2019-01-15T03:35:07.575Z,11.33
2019-01-15T03:37:37.664Z,7.30
2019-01-15T03:40:11.292Z,9.10
2019-01-15T03:42:41.726Z,8.63
2019-01-15T03:45:12.822Z,6.77
2019-01-15T03:47:43.168Z,5.77
2019-01-15T03:50:13.624Z,3.23
2019-01-15T03:52:44.008Z,5.87
2019-01-15T03:55:15.047Z,7.03
2019-01-15T03:57:45.615Z,6.53
2019-01-15T04:00:27.215Z,5.57
2019-01-15T04:02:58.025Z,3.37
2019-01-15T04:05:29.104Z,7.43
2019-01-15T04:08:00.132Z,9.90
2019-01-15T04:10:30.712Z,7.00
2019-01-15T04:13:01.034Z,2.93
2019-01-15T04:15:31.669Z,6.70
2019-01-15T04:18:01.785Z,4.00
2019-01-15T04:20:32.317Z,7.70
2019-01-15T04:23:02.984Z,5.40
2019-01-15T04:25:33.088Z,3.73
2019-01-15T04:28:03.173Z,4.77
2019-01-15T04:30:34.460Z,13.80
2019-01-15T04:33:04.466Z,9.57
2019-01-15T04:35:34.746Z,5.97
2019-01-15T04:38:06.097Z,3.70
2019-01-15T04:40:36.136Z,7.60
2019-01-15T04:43:06.248Z,3.13
2019-01-15T04:45:36.862Z,6.80
2019-01-15T04:48:07.481Z,3.20
2019-01-15T04:50:37.819Z,8.13
2019-01-15T04:53:08.117Z,13.67
2019-01-15T04:55:38.294Z,10.53
2019-01-15T04:58:08.437Z,5.70
2019-01-15T05:00:39.127Z,6.50
2019-01-15T05:03:12.023Z,11.63
2019-01-15T05:05:42.328Z,5.17
2019-01-15T05:08:12.561Z,3.97
2019-01-15T05:10:42.607Z,8.40
2019-01-15T05:13:13.237Z,5.63
2019-01-15T05:15:43.510Z,5.57
2019-01-15T05:18:13.601Z,9.03
2019-01-15T05:20:44.091Z,11.03
2019-01-15T05:23:14.118Z,11.80
2019-01-15T05:25:44.215Z,4.00
2019-01-15T05:28:15.052Z,4.70
2019-01-15T05:30:45.970Z,3.43
2019-01-15T05:33:16.203Z,10.23
2019-01-15T05:35:51.262Z,4.57
2019-01-15T05:38:24.988Z,3.10
2019-01-15T05:40:55.061Z,3.33
2019-01-15T05:43:25.645Z,6.57
2019-01-15T05:45:55.946Z,4.63
2019-01-15T05:48:35.452Z,4.87
2019-01-15T05:51:31.780Z,6.43
2019-01-15T05:54:05.839Z,7.90
2019-01-15T05:56:36.032Z,7.13
2019-01-15T05:59:07.709Z,6.60
2019-01-15T06:01:37.904Z,10.23
2019-01-15T06:04:08.755Z,8.93
2019-01-15T06:06:38.808Z,10.73
2019-01-15T06:09:11.693Z,13.40
2019-01-15T06:11:41.985Z,10.43
2019-01-15T06:14:12.827Z,9.10
2019-01-15T06:16:42.971Z,11.60
2019-01-15T06:19:13.256Z,9.70
2019-01-15T06:21:43.305Z,12.50
2019-01-15T06:24:13.594Z,13.43
2019-01-15T06:26:43.740Z,16.50
2019-01-15T06:29:13.968Z,11.60
2019-01-15T06:31:44.696Z,15.10
2019-01-15T06:34:14.617Z,19.90
2019-01-15T06:36:44.838Z,17.17
2019-01-15T06:39:15.400Z,26.13
2019-01-15T06:41:45.586Z,22.80
2019-01-15T06:44:15.884Z,18.67
2019-01-15T06:46:46.215Z,20.67
2019-01-15T06:49:16.754Z,16.90
2019-01-15T06:51:46.908Z,24.67
2019-01-15T06:54:17.494Z,20.93
2019-01-15T06:56:48.277Z,18.33
2019-01-15T06:59:18.597Z,24.17
2019-01-15T07:01:49.013Z,24.93
2019-01-15T07:04:19.533Z,19.73
2019-01-15T07:06:49.652Z,23.47
2019-01-15T07:09:19.835Z,21.17
2019-01-15T07:11:49.900Z,20.60
2019-01-15T07:14:20.311Z,22.63
2019-01-15T07:16:51.252Z,17.50
2019-01-15T07:19:21.336Z,24.87
2019-01-15T07:21:51.735Z,26.33
2019-01-15T07:24:21.888Z,23.63
2019-01-15T07:26:52.155Z,26.87
2019-01-15T07:29:23.816Z,22.33
2019-01-15T07:31:54.043Z,22.87
2019-01-15T07:34:24.455Z,27.73
2019-01-15T07:36:54.633Z,22.40
2019-01-15T07:39:24.880Z,25.07
2019-01-15T07:41:54.867Z,28.50
2019-01-15T07:44:25.355Z,24.30
2019-01-15T07:46:56.285Z,28.47
2019-01-15T07:49:26.393Z,24.07
2019-01-15T07:51:56.455Z,25.87
2019-01-15T07:54:26.611Z,25.70
2019-01-15T07:56:58.159Z,23.67
2019-01-15T07:59:28.551Z,29.13
2019-01-15T08:01:59.100Z,25.47
2019-01-15T08:04:29.282Z,31.20
2019-01-15T08:06:59.508Z,37.50
2019-01-15T08:09:29.814Z,28.73
2019-01-15T08:11:59.862Z,27.83
2019-01-15T08:14:29.991Z,32.40
2019-01-15T08:17:00.575Z,28.20
2019-01-15T08:19:30.839Z,27.50
2019-01-15T08:22:01.146Z,30.70
2019-01-15T08:24:31.116Z,43.67
2019-01-15T08:27:01.124Z,33.37
2019-01-15T08:29:31.497Z,36.57
2019-01-15T08:32:02.240Z,36.53
2019-01-15T08:34:32.508Z,31.03
2019-01-15T08:37:02.567Z,36.93
2019-01-15T08:39:32.669Z,37.30
2019-01-15T08:42:02.824Z,44.70
2019-01-15T08:44:33.176Z,32.80
2019-01-15T08:47:04.033Z,36.60
2019-01-15T08:49:34.304Z,35.37
2019-01-15T08:52:04.550Z,42.13
2019-01-15T08:54:34.719Z,34.70
2019-01-15T08:57:18.928Z,40.87
2019-01-15T08:59:49.230Z,36.00
2019-01-15T09:02:19.565Z,40.63
2019-01-15T09:04:49.576Z,46.77
2019-01-15T09:07:19.957Z,41.03
2019-01-15T09:09:50.213Z,52.10
2019-01-15T09:12:20.319Z,41.70
2019-01-15T09:14:50.665Z,42.27
2019-01-15T09:17:21.216Z,44.13
2019-01-15T09:19:51.630Z,47.70
2019-01-15T09:22:21.855Z,41.87
2019-01-15T09:24:51.717Z,42.67
2019-01-15T09:27:21.896Z,42.57
2019-01-15T09:29:53.387Z,39.57
2019-01-15T09:32:24.163Z,43.43
2019-01-15T09:34:54.291Z,40.13
2019-01-15T09:37:25.108Z,42.00
2019-01-15T09:39:55.283Z,38.93
2019-01-15T09:42:25.412Z,47.30
2019-01-15T09:44:55.828Z,42.60
2019-01-15T09:48:12.827Z,34.73
2019-01-15T09:50:43.007Z,39.77
2019-01-15T09:53:13.285Z,35.93
2019-01-15T09:55:43.631Z,34.17
2019-01-15T09:58:13.921Z,34.87
2019-01-15T10:00:44.077Z,40.37
2019-01-15T10:03:14.947Z,38.57
2019-01-15T10:05:45.034Z,40.00
2019-01-15T10:08:14.984Z,35.80
2019-01-15T10:10:45.348Z,35.33
2019-01-15T10:13:16.221Z,31.23
2019-01-15T10:15:46.437Z,37.77
2019-01-15T10:18:16.560Z,39.27
2019-01-15T10:20:46.938Z,34.23
2019-01-15T10:23:17.440Z,37.33
2019-01-15T10:25:47.548Z,28.57
2019-01-15T10:28:17.930Z,36.00
2019-01-15T10:31:30.145Z,31.33
2019-01-15T10:34:05.298Z,29.37
2019-01-15T10:36:33.459Z,33.20
2019-01-15T10:39:04.672Z,29.93
2019-01-15T10:41:35.557Z,39.53
2019-01-15T10:44:05.863Z,29.00
2019-01-15T10:46:36.193Z,34.00
2019-01-15T10:49:07.656Z,34.53
2019-01-15T10:51:37.644Z,33.77
2019-01-15T10:54:07.817Z,30.07
2019-01-15T10:56:37.921Z,34.70
2019-01-15T10:59:08.173Z,35.10
2019-01-15T11:01:38.287Z,33.23
2019-01-15T11:04:08.565Z,26.07
2019-01-15T11:06:38.796Z,30.83
2019-01-15T11:09:10.265Z,34.20
2019-01-15T11:11:40.332Z,35.13
2019-01-15T11:14:14.054Z,31.40
2019-01-15T11:16:44.178Z,35.07
2019-01-15T11:19:14.333Z,34.47
2019-01-15T11:21:44.489Z,21.07
2019-01-15T11:24:15.408Z,31.90
2019-01-15T11:26:45.840Z,34.50
2019-01-15T11:29:16.024Z,29.40
2019-01-15T11:31:46.619Z,27.60
2019-01-15T11:34:16.824Z,24.83
2019-01-15T11:36:47.039Z,25.23
2019-01-15T11:39:17.948Z,26.90
2019-01-15T11:44:11.500Z,20.93
2019-01-15T11:46:41.756Z,23.37
2019-01-15T11:49:11.912Z,24.70
2019-01-15T11:51:42.596Z,21.27
2019-01-15T11:54:12.677Z,28.10
2019-01-15T11:56:42.952Z,23.23
2019-01-15T11:59:13.152Z,17.40
2019-01-15T12:01:46.480Z,22.37
2019-01-15T12:04:41.635Z,17.77
2019-01-15T12:07:33.921Z,24.27
2019-01-15T12:10:38.548Z,20.10
2019-01-15T12:13:26.282Z,20.93
2019-01-15T12:16:08.356Z,20.90
2019-01-15T12:19:09.940Z,22.20
2019-01-15T12:21:57.987Z,23.83
2019-01-15T12:24:38.508Z,19.60
2019-01-15T12:27:37.971Z,17.80
2019-01-15T12:30:24.266Z,20.23
2019-01-15T12:33:13.260Z,24.93
2019-01-15T12:36:14.445Z,24.20
2019-01-15T12:39:03.047Z,30.00
2019-01-15T12:41:59.679Z,24.60
2019-01-15T12:44:47.931Z,24.37
2019-01-15T12:47:37.303Z,25.90
2019-01-15T12:50:28.108Z,20.70
2019-01-15T12:53:13.421Z,23.50
2019-01-15T12:56:01.580Z,22.43
2019-01-15T12:58:42.453Z,21.27
2019-01-15T13:01:40.886Z,25.33
2019-01-15T13:04:45.856Z,20.60
2019-01-15T13:07:44.820Z,17.50
2019-01-15T13:10:36.956Z,17.17
2019-01-15T13:13:32.473Z,18.13
2019-01-15T13:16:20.356Z,19.90
2019-01-15T13:19:08.058Z,20.93
2019-01-15T13:21:56.089Z,25.47
2019-01-15T13:24:44.551Z,21.00
2019-01-15T13:27:37.115Z,20.33
2019-01-15T13:30:36.784Z,19.30
2019-01-15T13:33:17.133Z,17.60
2019-01-15T13:36:16.663Z,22.63
2019-01-15T13:39:11.975Z,23.00
2019-01-15T13:42:01.441Z,19.80
2019-01-15T13:44:54.518Z,29.33
2019-01-15T13:47:44.259Z,22.03
2019-01-15T13:50:25.654Z,20.33
2019-01-15T13:53:21.097Z,16.60
2019-01-15T13:56:04.768Z,19.13
2019-01-15T13:58:58.104Z,20.10
2019-01-15T14:01:56.691Z,22.00
2019-01-15T14:04:54.329Z,17.43
2019-01-15T14:07:44.923Z,28.37
2019-01-15T14:10:33.405Z,24.00
2019-01-15T14:13:26.054Z,20.80
2019-01-15T14:16:15.837Z,19.43
2019-01-15T14:19:34.800Z,17.37
2019-01-15T14:25:21.384Z,23.57
2019-01-15T14:28:14.091Z,16.60
2019-01-15T14:31:09.440Z,14.30
2019-01-15T14:33:58.056Z,18.43
2019-01-15T14:36:50.399Z,25.67
2019-01-15T14:39:39.605Z,16.33
2019-01-15T14:42:28.232Z,16.83
2019-01-15T14:45:12.988Z,15.23
2019-01-15T14:48:13.927Z,16.80
2019-01-15T14:51:01.794Z,18.27
2019-01-15T14:53:44.391Z,14.40
2019-01-15T14:56:30.164Z,17.30
2019-01-15T14:59:17.603Z,20.80
2019-01-15T15:02:06.507Z,18.53
2019-01-15T15:04:54.596Z,18.60
2019-01-15T15:07:46.927Z,16.60
2019-01-15T15:10:38.968Z,16.07
2019-01-15T15:13:28.340Z,13.20
2019-01-15T15:16:11.931Z,18.60
2019-01-15T15:19:07.771Z,25.17
2019-01-15T15:22:06.658Z,20.30
2019-01-15T15:25:00.485Z,19.73
2019-01-15T15:27:53.133Z,16.30
2019-01-15T15:30:43.010Z,17.10
2019-01-15T15:33:30.653Z,26.30
2019-01-15T15:36:25.766Z,16.97
2019-01-15T15:39:33.352Z,17.77
2019-01-15T15:42:25.795Z,18.20
2019-01-15T15:45:12.042Z,17.00
2019-01-15T15:48:04.335Z,23.90
2019-01-15T15:50:50.941Z,17.10
2019-01-15T15:53:46.076Z,27.53
2019-01-15T15:56:33.987Z,19.00
2019-01-15T15:59:26.593Z,18.93
2019-01-15T16:02:31.367Z,18.53
2019-01-15T16:05:39.148Z,17.97
2019-01-15T16:08:26.793Z,17.03
2019-01-15T16:11:22.010Z,17.87
2019-01-15T16:14:18.047Z,13.27
2019-01-15T16:17:13.866Z,17.70
2019-01-15T16:20:02.325Z,14.53
2019-01-15T16:25:19.937Z,20.97
2019-01-15T16:28:26.971Z,17.93
2019-01-15T16:31:19.202Z,18.53
2019-01-15T16:34:08.299Z,17.13
2019-01-15T16:36:56.303Z,18.40
2019-01-15T16:39:46.075Z,12.63
2019-01-15T16:42:42.009Z,20.70
2019-01-15T16:45:30.563Z,16.90
2019-01-15T16:48:32.019Z,17.77
2019-01-15T16:51:20.365Z,22.63
2019-01-15T16:54:10.116Z,24.13
2019-01-15T16:57:17.664Z,18.23
2019-01-15T17:00:10.200Z,20.17
2019-01-15T17:03:05.718Z,20.13
2019-01-15T17:06:07.583Z,17.77
2019-01-15T17:09:00.857Z,16.83
2019-01-15T17:11:53.493Z,20.60
2019-01-15T17:14:41.579Z,19.27
2019-01-15T17:20:26.947Z,19.40
2019-01-15T17:23:34.753Z,16.53
2019-01-15T17:26:23.627Z,26.03
2019-01-15T17:29:25.899Z,19.97
2019-01-15T17:32:14.852Z,23.93
2019-01-15T17:35:04.120Z,22.87
2019-01-15T17:38:05.462Z,28.27
2019-01-15T17:40:56.604Z,26.97
2019-01-15T17:43:41.465Z,25.93
2019-01-15T17:46:41.096Z,25.97
2019-01-15T17:49:30.440Z,24.70
2019-01-15T17:52:18.676Z,24.57
2019-01-15T17:55:04.570Z,30.87
2019-01-15T17:58:06.434Z,21.40
2019-01-15T18:00:54.780Z,29.20
2019-01-15T18:03:59.513Z,29.37
2019-01-15T18:06:47.256Z,26.17
2019-01-15T18:09:49.148Z,28.93
2019-01-15T18:12:55.296Z,28.03
2019-01-15T18:15:48.034Z,31.70
2019-01-15T18:18:37.914Z,35.63
2019-01-15T18:21:38.093Z,31.77
2019-01-15T18:24:25.517Z,26.90
2019-01-15T18:27:13.398Z,29.97
2019-01-15T18:30:02.453Z,30.90
2019-01-15T18:32:58.082Z,27.07
2019-01-15T18:36:03.019Z,27.53
2019-01-15T18:38:58.168Z,28.40
2019-01-15T18:41:59.595Z,33.17
2019-01-15T18:44:48.951Z,27.50
2019-01-15T18:47:39.555Z,34.30
2019-01-15T18:50:33.605Z,36.43
2019-01-15T18:53:23.325Z,31.13
2019-01-15T18:56:01.080Z,26.33
2019-01-15T18:58:56.146Z,31.67
2019-01-15T19:01:58.199Z,34.77
2019-01-15T19:04:59.449Z,27.57
2019-01-15T19:08:04.693Z,35.97
2019-01-15T19:10:56.859Z,32.80
2019-01-15T19:13:46.817Z,31.60
2019-01-15T19:16:38.854Z,29.50
2019-01-15T19:19:29.882Z,26.03
2019-01-15T19:22:31.521Z,29.60
2019-01-15T19:25:13.110Z,27.37
2019-01-15T19:28:17.555Z,33.00
2019-01-15T19:31:07.971Z,29.20
2019-01-15T19:34:11.060Z,30.93
2019-01-15T19:36:58.655Z,25.90
2019-01-15T19:39:50.920Z,25.10
2019-01-15T19:42:30.230Z,28.90
2019-01-15T19:45:18.475Z,28.73
2019-01-15T19:48:06.619Z,27.90
2019-01-15T19:51:01.424Z,29.60
2019-01-15T19:53:56.831Z,26.37
2019-01-15T19:56:54.076Z,27.03
2019-01-15T19:59:49.516Z,28.03
2019-01-15T20:02:45.033Z,26.57
2019-01-15T20:05:43.209Z,28.90
2019-01-15T20:08:31.146Z,28.50
2019-01-15T20:11:20.109Z,29.00
2019-01-15T20:14:09.275Z,31.73
2019-01-15T20:16:58.324Z,31.73
2019-01-15T20:19:53.248Z,28.90
2019-01-15T20:23:03.406Z,27.27
2019-01-15T20:25:48.718Z,29.40
2019-01-15T20:28:42.464Z,31.57
2019-01-15T20:31:46.876Z,32.13
2019-01-15T20:34:53.252Z,34.77
2019-01-15T20:37:54.499Z,36.13
2019-01-15T20:40:42.850Z,31.27
2019-01-15T20:43:28.944Z,29.47
2019-01-15T20:46:17.084Z,36.30
2019-01-15T20:49:05.431Z,28.03
2019-01-15T20:51:57.402Z,34.50
2019-01-15T20:54:39.960Z,31.30
2019-01-15T20:57:33.967Z,36.43
2019-01-15T21:00:36.130Z,35.67
2019-01-15T21:03:28.268Z,29.37
2019-01-15T21:06:24.087Z,31.50
2019-01-15T21:09:12.545Z,40.27
2019-01-15T21:12:05.089Z,34.83
2019-01-15T21:14:53.328Z,31.13
2019-01-15T21:17:58.059Z,37.80
2019-01-15T21:20:46.205Z,32.63
2019-01-15T21:23:34.263Z,33.50
2019-01-15T21:26:19.230Z,38.50
2019-01-15T21:29:07.152Z,38.40
2019-01-15T21:31:55.401Z,36.97
2019-01-15T21:34:43.436Z,40.33
2019-01-15T21:37:31.785Z,39.70
2019-01-15T21:40:30.576Z,39.80
2019-01-15T21:43:21.382Z,39.90
2019-01-15T21:46:16.602Z,46.27
2019-01-15T21:49:08.934Z,42.70
2019-01-15T21:51:57.076Z,42.37
2019-01-15T21:54:45.219Z,38.80
2019-01-15T21:57:36.637Z,39.57
2019-01-15T22:00:27.648Z,37.03
2019-01-15T22:03:20.398Z,41.50
2019-01-15T22:06:09.174Z,43.33
2019-01-15T22:09:11.336Z,35.03
2019-01-15T22:12:13.193Z,36.83
2019-01-15T22:15:01.547Z,36.53
2019-01-15T22:17:57.466Z,36.27
2019-01-15T22:20:55.355Z,37.00
2019-01-15T22:24:02.834Z,40.60
2019-01-15T22:26:54.998Z,32.90
2019-01-15T22:29:38.918Z,33.87
2019-01-15T22:32:18.777Z,34.40
2019-01-15T22:35:06.913Z,34.77
2019-01-15T22:37:44.205Z,44.73
2019-01-15T22:40:33.670Z,36.53
2019-01-15T22:43:21.812Z,31.47
2019-01-15T22:46:23.081Z,36.30
2019-01-15T22:49:11.410Z,32.00
2019-01-15T22:52:00.372Z,36.40
2019-01-15T22:54:59.868Z,40.70
2019-01-15T22:57:47.922Z,35.20
2019-01-15T23:00:43.847Z,36.93
2019-01-15T23:03:24.117Z,35.03
2019-01-15T23:06:28.735Z,31.37
2019-01-15T23:09:30.397Z,37.03
2019-01-15T23:12:18.344Z,37.80
2019-01-15T23:15:13.853Z,37.70
2019-01-15T23:18:02.505Z,35.70
2019-01-15T23:20:44.513Z,33.37
2019-01-15T23:23:28.949Z,33.23
2019-01-15T23:26:14.337Z,33.53
2019-01-15T23:29:18.976Z,33.83
2019-01-15T23:31:56.360Z,38.97
2019-01-15T23:34:48.802Z,30.20
2019-01-15T23:37:33.680Z,35.53
2019-01-15T23:40:41.677Z,32.23
2019-01-15T23:43:31.469Z,36.53
2019-01-15T23:46:19.940Z,44.57
2019-01-15T23:49:07.948Z,36.47
2019-01-15T23:52:03.166Z,39.33
2019-01-15T23:55:07.694Z,39.07
2019-01-15T23:58:05.863Z,37.80
